createdAt,value
2023-04-12T00:00:54.626Z,20.40
2023-04-12T00:03:22.060Z,20.40
2023-04-12T00:05:54.840Z,20.40
2023-04-12T00:08:26.646Z,20.50
2023-04-12T00:10:53.675Z,20.50
2023-04-12T00:13:20.488Z,20.50
2023-04-12T00:15:47.273Z,20.50
2023-04-12T00:18:14.060Z,20.50
2023-04-12T00:20:42.496Z,20.50
2023-04-12T00:23:10.035Z,20.50
2023-04-12T00:25:39.252Z,20.50
2023-04-12T00:28:06.520Z,20.50
2023-04-12T00:30:33.295Z,20.50
2023-04-12T00:33:00.179Z,20.50
2023-04-12T00:35:26.958Z,20.40
2023-04-12T00:37:54.693Z,20.40
2023-04-12T00:40:21.423Z,20.40
2023-04-12T00:42:48.176Z,20.40
2023-04-12T00:45:14.997Z,20.40
2023-04-12T00:47:44.006Z,20.40
2023-04-12T00:50:11.408Z,20.40
2023-04-12T00:52:39.160Z,20.40
2023-04-12T00:55:07.237Z,20.40
2023-04-12T00:57:36.669Z,20.40
2023-04-12T01:00:14.276Z,20.40
2023-04-12T01:02:48.299Z,20.40
2023-04-12T01:05:22.404Z,20.30
2023-04-12T01:08:15.588Z,20.40
2023-04-12T01:11:04.341Z,20.40
2023-04-12T01:13:46.006Z,20.40
2023-04-12T01:16:19.882Z,20.50
2023-04-12T01:18:50.550Z,20.50
2023-04-12T01:21:21.100Z,20.50
2023-04-12T01:24:16.147Z,20.50
2023-04-12T01:26:45.631Z,20.50
2023-04-12T01:29:16.669Z,20.50
2023-04-12T01:32:01.397Z,20.50
2023-04-12T01:34:32.318Z,20.50
2023-04-12T01:37:01.321Z,20.50
2023-04-12T01:39:32.399Z,20.50
2023-04-12T01:41:59.072Z,20.40
2023-04-12T01:44:25.747Z,20.40
2023-04-12T01:46:52.992Z,20.40
2023-04-12T01:49:19.690Z,20.40
2023-04-12T01:51:52.832Z,20.40
2023-04-12T01:54:30.511Z,20.40
2023-04-12T01:56:58.791Z,20.40
2023-04-12T01:59:44.359Z,20.40
2023-04-12T02:02:14.170Z,20.40
2023-04-12T02:04:41.688Z,20.40
2023-04-12T02:07:09.407Z,20.40
2023-04-12T02:09:39.468Z,20.40
2023-04-12T02:12:06.644Z,20.40
2023-04-12T02:14:33.519Z,20.40
2023-04-12T02:17:02.282Z,20.40
2023-04-12T02:19:29.336Z,20.40
2023-04-12T02:21:56.107Z,20.40
2023-04-12T02:24:22.924Z,20.40
2023-04-12T02:26:52.400Z,20.50
2023-04-12T02:29:19.705Z,20.50
2023-04-12T02:31:47.005Z,20.50
2023-04-12T02:34:16.048Z,20.50
2023-04-12T02:36:43.996Z,20.50
2023-04-12T02:39:10.677Z,20.50
2023-04-12T02:41:37.441Z,20.50
2023-04-12T02:44:04.141Z,20.50
2023-04-12T02:46:31.185Z,20.40
2023-04-12T02:48:58.140Z,20.40
2023-04-12T02:51:24.932Z,20.40
2023-04-12T02:53:51.723Z,20.40
2023-04-12T02:56:19.993Z,20.40
2023-04-12T02:58:46.786Z,20.40
2023-04-12T03:01:14.489Z,20.40
2023-04-12T03:03:41.419Z,20.40
2023-04-12T03:06:09.547Z,20.40
2023-04-12T03:08:36.240Z,20.40
2023-04-12T03:11:02.924Z,20.40
2023-04-12T03:13:29.619Z,20.40
2023-04-12T03:15:57.785Z,20.40
2023-04-12T03:18:25.155Z,20.30
2023-04-12T03:20:52.834Z,20.30
2023-04-12T03:23:21.560Z,20.30
2023-04-12T03:25:48.356Z,20.30
2023-04-12T03:28:15.058Z,20.40
2023-04-12T03:30:41.776Z,20.40
2023-04-12T03:33:08.604Z,20.40
2023-04-12T03:35:35.385Z,20.40
2023-04-12T03:38:02.292Z,20.40
2023-04-12T03:40:29.069Z,20.40
2023-04-12T03:42:55.735Z,20.40
2023-04-12T03:45:24.129Z,20.40
2023-04-12T03:47:50.982Z,20.50
2023-04-12T03:50:17.851Z,20.40
2023-04-12T03:52:44.508Z,20.40
2023-04-12T03:55:12.241Z,20.40
2023-04-12T03:57:39.089Z,20.40
2023-04-12T04:00:08.498Z,20.40
2023-04-12T04:02:35.616Z,20.30
2023-04-12T04:05:03.972Z,20.30
2023-04-12T04:07:31.860Z,20.30
2023-04-12T04:09:58.623Z,20.30
2023-04-12T04:12:25.596Z,20.30
2023-04-12T04:14:52.254Z,20.30
2023-04-12T04:17:19.119Z,20.30
2023-04-12T04:19:45.846Z,20.30
2023-04-12T04:22:12.564Z,20.30
2023-04-12T04:24:40.127Z,20.30
2023-04-12T04:27:06.901Z,20.30
2023-04-12T04:29:33.824Z,20.30
2023-04-12T04:32:00.784Z,20.30
2023-04-12T04:34:27.997Z,20.30
2023-04-12T04:36:56.052Z,20.30
2023-04-12T04:39:23.006Z,20.30
2023-04-12T04:41:55.277Z,20.30
2023-04-12T04:44:22.531Z,20.30
2023-04-12T04:46:49.394Z,20.30
2023-04-12T04:49:16.389Z,20.40
2023-04-12T04:51:43.200Z,20.40
2023-04-12T04:54:09.982Z,20.40
2023-04-12T04:56:36.634Z,20.40
2023-04-12T04:59:03.390Z,20.30
2023-04-12T05:01:30.222Z,20.40
2023-04-12T05:03:57.384Z,20.30
2023-04-12T05:06:24.772Z,20.30
2023-04-12T05:08:52.510Z,20.30
2023-04-12T05:11:19.998Z,20.30
2023-04-12T05:13:46.759Z,20.30
2023-04-12T05:16:13.548Z,20.30
2023-04-12T05:18:40.367Z,20.40
2023-04-12T05:21:07.318Z,20.30
2023-04-12T05:23:37.853Z,20.40
2023-04-12T05:26:05.000Z,20.30
2023-04-12T05:28:31.708Z,20.30
2023-04-12T05:30:58.625Z,20.30
2023-04-12T05:33:26.560Z,20.40
2023-04-12T05:35:53.308Z,20.40
2023-04-12T05:38:20.338Z,20.40
2023-04-12T05:40:49.948Z,20.30
2023-04-12T05:43:17.783Z,20.40
2023-04-12T05:45:44.480Z,20.40
2023-04-12T05:48:11.225Z,20.40
2023-04-12T05:50:37.991Z,20.40
2023-04-12T05:53:04.647Z,20.40
2023-04-12T05:55:31.365Z,20.40
2023-04-12T05:57:58.618Z,20.40
2023-04-12T06:00:26.622Z,20.40
2023-04-12T06:02:54.037Z,20.40
2023-04-12T06:05:21.605Z,20.40
2023-04-12T06:07:49.183Z,20.40
2023-04-12T06:10:17.338Z,20.40
2023-04-12T06:12:44.960Z,20.40
2023-04-12T06:15:12.214Z,20.40
2023-04-12T06:17:39.281Z,20.40
2023-04-12T06:20:10.207Z,20.30
2023-04-12T06:22:37.741Z,20.30
2023-04-12T06:25:05.197Z,20.30
2023-04-12T06:27:32.228Z,20.30
2023-04-12T06:29:59.238Z,20.30
2023-04-12T06:32:27.597Z,20.30
2023-04-12T06:34:54.416Z,20.30
2023-04-12T06:37:21.861Z,20.30
2023-04-12T06:39:48.635Z,20.30
2023-04-12T06:42:15.654Z,20.40
2023-04-12T06:44:42.340Z,20.30
2023-04-12T06:47:09.516Z,20.40
2023-04-12T06:49:36.457Z,20.30
2023-04-12T06:52:03.261Z,20.40
2023-04-12T06:54:29.990Z,20.30
2023-04-12T06:56:57.767Z,20.40
2023-04-12T06:59:24.812Z,20.40
2023-04-12T07:01:52.054Z,20.30
2023-04-12T07:04:18.914Z,20.40
2023-04-12T07:06:45.941Z,20.40
2023-04-12T07:09:12.688Z,20.40
2023-04-12T07:11:39.558Z,20.40
2023-04-12T07:14:06.536Z,20.50
2023-04-12T07:16:34.261Z,20.40
2023-04-12T07:19:01.133Z,20.50
2023-04-12T07:21:28.227Z,20.50
2023-04-12T07:23:56.968Z,20.50
2023-04-12T07:26:23.980Z,20.50
2023-04-12T07:28:51.193Z,20.50
2023-04-12T07:31:17.966Z,20.50
2023-04-12T07:33:45.005Z,20.50
2023-04-12T07:36:12.406Z,20.60
2023-04-12T07:38:39.519Z,20.60
2023-04-12T07:41:06.553Z,20.60
2023-04-12T07:43:33.261Z,20.60
2023-04-12T07:46:00.225Z,20.70
2023-04-12T07:48:27.847Z,20.70
2023-04-12T07:50:54.879Z,20.70
2023-04-12T07:53:23.753Z,20.70
2023-04-12T07:55:51.122Z,20.70
2023-04-12T07:58:18.079Z,20.70
2023-04-12T08:00:45.338Z,20.70
2023-04-12T08:03:12.972Z,20.80
2023-04-12T08:05:40.748Z,20.80
2023-04-12T08:08:08.772Z,20.80
2023-04-12T08:10:38.951Z,20.80
2023-04-12T08:13:05.907Z,20.80
2023-04-12T08:15:32.887Z,20.80
2023-04-12T08:17:59.745Z,20.80
2023-04-12T08:20:27.898Z,20.80
2023-04-12T08:22:56.338Z,20.70
2023-04-12T08:25:23.180Z,20.70
2023-04-12T08:27:50.433Z,20.70
2023-04-12T08:30:17.332Z,20.60
2023-04-12T08:32:44.063Z,20.80
2023-04-12T08:35:11.447Z,20.90
2023-04-12T08:37:38.202Z,20.90
2023-04-12T08:40:07.287Z,20.90
2023-04-12T08:42:37.598Z,20.90
2023-04-12T08:45:08.939Z,21.00
2023-04-12T08:47:41.095Z,21.00
2023-04-12T08:50:09.439Z,21.00
2023-04-12T08:52:37.087Z,21.00
2023-04-12T08:55:07.054Z,21.00
2023-04-12T08:57:35.638Z,21.00
2023-04-12T09:00:03.637Z,20.90
2023-04-12T09:02:31.299Z,20.90
2023-04-12T09:04:58.564Z,20.80
2023-04-12T09:07:30.176Z,20.70
2023-04-12T09:09:58.356Z,20.70
2023-04-12T09:12:27.377Z,20.90
2023-04-12T09:15:10.332Z,20.90
2023-04-12T09:17:38.680Z,21.00
2023-04-12T09:20:17.871Z,21.00
2023-04-12T09:22:46.374Z,21.00
2023-04-12T09:25:14.248Z,21.00
2023-04-12T09:27:47.891Z,20.80
2023-04-12T09:30:18.657Z,20.90
2023-04-12T09:32:45.616Z,20.90
2023-04-12T09:35:12.354Z,21.00
2023-04-12T09:37:39.657Z,21.10
2023-04-12T09:40:08.185Z,21.20
2023-04-12T09:42:35.587Z,21.10
2023-04-12T09:45:20.287Z,21.00
2023-04-12T09:47:47.038Z,20.90
2023-04-12T09:50:22.819Z,20.80
2023-04-12T09:52:50.018Z,20.80
2023-04-12T09:55:16.955Z,20.80
2023-04-12T09:57:49.883Z,20.70
2023-04-12T10:01:01.035Z,20.80
2023-04-12T10:03:40.173Z,20.90
2023-04-12T10:06:19.145Z,21.00
2023-04-12T10:08:46.626Z,21.00
2023-04-12T10:11:13.417Z,21.00
2023-04-12T10:13:40.126Z,21.00
2023-04-12T10:16:07.161Z,20.90
2023-04-12T10:18:35.878Z,20.90
2023-04-12T10:21:02.922Z,20.90
2023-04-12T10:23:31.336Z,21.00
2023-04-12T10:25:59.200Z,21.00
2023-04-12T10:28:38.597Z,21.00
2023-04-12T10:31:29.188Z,21.00
2023-04-12T10:33:56.706Z,20.90
2023-04-12T10:36:53.543Z,20.70
2023-04-12T10:39:44.086Z,20.70
2023-04-12T10:42:30.318Z,20.70
2023-04-12T10:48:26.887Z,20.80
2023-04-12T10:51:26.833Z,20.90
2023-04-12T10:54:16.920Z,20.90
2023-04-12T10:56:47.004Z,20.80
2023-04-12T10:59:14.194Z,20.70
2023-04-12T11:01:42.251Z,20.70
2023-04-12T11:04:31.710Z,20.70
2023-04-12T11:07:12.900Z,20.70
2023-04-12T11:09:43.696Z,20.70
2023-04-12T11:12:16.734Z,20.60
2023-04-12T11:14:43.556Z,20.50
2023-04-12T11:17:13.420Z,20.60
2023-04-12T11:20:01.127Z,20.60
2023-04-12T11:22:30.371Z,20.50
2023-04-12T11:24:59.761Z,20.60
2023-04-12T11:27:28.020Z,20.50
2023-04-12T11:29:57.072Z,20.50
2023-04-12T11:32:27.397Z,20.50
2023-04-12T11:34:56.405Z,20.50
2023-04-12T11:37:23.447Z,20.50
2023-04-12T11:39:52.022Z,20.50
2023-04-12T11:42:25.973Z,20.50
2023-04-12T11:44:58.613Z,20.50
2023-04-12T11:47:29.152Z,20.50
2023-04-12T11:49:57.428Z,20.50
2023-04-12T11:52:31.629Z,20.50
2023-04-12T11:55:02.177Z,20.50
2023-04-12T11:57:29.335Z,20.50
2023-04-12T11:59:57.161Z,20.50
2023-04-12T12:02:25.212Z,20.60
2023-04-12T12:04:53.436Z,20.60
2023-04-12T12:07:21.366Z,20.70
2023-04-12T12:09:48.765Z,20.60
2023-04-12T12:12:16.161Z,20.60
2023-04-12T12:14:44.509Z,20.60
2023-04-12T12:17:12.573Z,20.60
2023-04-12T12:19:40.640Z,20.60
2023-04-12T12:22:13.321Z,20.60
2023-04-12T12:25:00.751Z,20.60
2023-04-12T12:27:30.735Z,20.50
2023-04-12T12:30:01.192Z,20.40
2023-04-12T12:32:34.901Z,20.30
2023-04-12T12:35:01.758Z,20.10
2023-04-12T12:37:28.880Z,20.20
2023-04-12T12:40:14.384Z,20.20
2023-04-12T12:42:48.593Z,20.30
2023-04-12T12:45:16.132Z,20.30
2023-04-12T12:47:58.810Z,20.30
2023-04-12T12:50:29.925Z,20.30
2023-04-12T12:52:56.611Z,20.30
2023-04-12T12:55:23.764Z,20.30
2023-04-12T12:58:05.893Z,20.20
2023-04-12T13:00:34.196Z,20.20
2023-04-12T13:03:03.083Z,20.30
2023-04-12T13:05:30.308Z,20.30
2023-04-12T13:07:57.132Z,20.30
2023-04-12T13:10:23.936Z,20.30
2023-04-12T13:12:50.798Z,20.30
2023-04-12T13:15:23.092Z,20.40
2023-04-12T13:17:52.492Z,20.40
2023-04-12T13:20:19.384Z,20.40
2023-04-12T13:22:46.134Z,20.50
2023-04-12T13:25:12.824Z,20.50
2023-04-12T13:27:39.487Z,20.50
2023-04-12T13:30:07.082Z,20.60
2023-04-12T13:32:33.952Z,20.50
2023-04-12T13:35:01.899Z,20.50
2023-04-12T13:37:28.872Z,20.60
2023-04-12T13:39:55.742Z,20.60
2023-04-12T13:42:22.863Z,20.60
2023-04-12T13:44:49.793Z,20.60
2023-04-12T13:47:17.954Z,20.60
2023-04-12T13:49:44.853Z,20.60
2023-04-12T13:52:11.797Z,20.70
2023-04-12T13:54:38.532Z,20.70
2023-04-12T13:57:05.907Z,20.60
2023-04-12T13:59:33.444Z,20.60
2023-04-12T14:02:01.567Z,20.60
2023-04-12T14:04:29.191Z,20.60
2023-04-12T14:06:57.032Z,20.60
2023-04-12T14:09:28.027Z,20.60
2023-04-12T14:11:56.030Z,20.60
2023-04-12T14:14:23.046Z,20.60
2023-04-12T14:16:53.588Z,20.60
2023-04-12T14:19:20.842Z,20.60
2023-04-12T14:21:47.942Z,20.70
2023-04-12T14:24:18.043Z,20.70
2023-04-12T14:26:45.348Z,20.70
2023-04-12T14:29:12.137Z,20.70
2023-04-12T14:31:39.256Z,20.60
2023-04-12T14:34:06.333Z,20.60
2023-04-12T14:36:34.481Z,20.60
2023-04-12T14:39:04.168Z,20.60
2023-04-12T14:41:32.690Z,20.60
2023-04-12T14:44:05.019Z,20.70
2023-04-12T14:46:33.745Z,20.70
2023-04-12T14:49:02.351Z,20.80
2023-04-12T14:51:29.320Z,20.80
2023-04-12T14:53:56.541Z,20.70
2023-04-12T14:56:25.438Z,20.60
2023-04-12T14:58:56.814Z,20.60
2023-04-12T15:01:23.949Z,20.50
2023-04-12T15:03:54.280Z,20.50
2023-04-12T15:06:28.831Z,20.60
2023-04-12T15:08:57.142Z,20.70
2023-04-12T15:11:26.773Z,20.60
2023-04-12T15:13:53.953Z,20.60
2023-04-12T15:16:20.923Z,20.50
2023-04-12T15:18:47.825Z,20.50
2023-04-12T15:21:14.620Z,20.50
2023-04-12T15:23:41.759Z,20.50
2023-04-12T15:26:12.214Z,20.50
2023-04-12T15:28:38.971Z,20.50
2023-04-12T15:31:06.323Z,20.50
2023-04-12T15:33:37.825Z,20.50
2023-04-12T15:36:05.018Z,20.50
2023-04-12T15:38:33.274Z,20.50
2023-04-12T15:41:02.312Z,20.50
2023-04-12T15:43:29.176Z,20.50
2023-04-12T15:45:56.305Z,20.50
2023-04-12T15:48:23.795Z,20.60
2023-04-12T15:50:51.212Z,20.70
2023-04-12T15:53:21.292Z,20.70
2023-04-12T15:55:48.582Z,20.60
2023-04-12T15:58:15.532Z,20.50
2023-04-12T16:00:42.449Z,20.50
2023-04-12T16:03:09.563Z,20.50
2023-04-12T16:05:36.552Z,20.50
2023-04-12T16:08:03.797Z,20.50
2023-04-12T16:10:31.806Z,20.60
2023-04-12T16:12:59.269Z,20.60
2023-04-12T16:15:26.082Z,20.50
2023-04-12T16:17:56.268Z,20.60
2023-04-12T16:20:23.470Z,20.60
2023-04-12T16:22:54.329Z,20.50
2023-04-12T16:25:25.131Z,20.50
2023-04-12T16:27:52.231Z,20.50
2023-04-12T16:30:19.021Z,20.50
2023-04-12T16:32:46.741Z,20.50
2023-04-12T16:35:37.837Z,20.60
2023-04-12T16:38:04.757Z,20.60
2023-04-12T16:40:32.776Z,20.90
2023-04-12T16:42:59.516Z,20.80
2023-04-12T16:45:26.191Z,20.80
2023-04-12T16:47:52.911Z,20.70
2023-04-12T16:50:20.968Z,20.80
2023-04-12T16:52:48.875Z,20.80
2023-04-12T16:55:16.092Z,20.80
2023-04-12T16:57:44.204Z,20.80
2023-04-12T17:00:23.542Z,20.80
2023-04-12T17:02:51.514Z,20.80
2023-04-12T17:05:19.784Z,20.80
2023-04-12T17:07:50.644Z,20.80
2023-04-12T17:10:17.720Z,20.80
2023-04-12T17:12:48.046Z,20.90
2023-04-12T17:15:18.843Z,20.90
2023-04-12T17:17:52.896Z,20.90
2023-04-12T17:20:20.825Z,20.90
2023-04-12T17:22:48.002Z,20.90
2023-04-12T17:25:14.832Z,20.80
2023-04-12T17:27:47.875Z,20.80
2023-04-12T17:30:16.561Z,20.80
2023-04-12T17:32:45.199Z,20.80
2023-04-12T17:35:13.395Z,20.90
2023-04-12T17:37:40.548Z,20.90
2023-04-12T17:40:10.926Z,20.90
2023-04-12T17:42:39.198Z,20.90
2023-04-12T17:45:06.583Z,20.90
2023-04-12T17:47:34.748Z,20.90
2023-04-12T17:50:02.762Z,20.90
2023-04-12T17:52:29.533Z,20.90
2023-04-12T17:54:56.477Z,20.80
2023-04-12T17:57:23.264Z,20.80
2023-04-12T17:59:50.297Z,20.80
2023-04-12T18:02:17.211Z,20.80
2023-04-12T18:04:44.211Z,20.80
2023-04-12T18:07:15.506Z,20.80
2023-04-12T18:09:44.863Z,20.90
2023-04-12T18:12:12.682Z,20.80
2023-04-12T18:14:40.977Z,20.80
2023-04-12T18:17:08.154Z,20.70
2023-04-12T18:19:35.130Z,20.80
2023-04-12T18:22:03.846Z,20.90
2023-04-12T18:24:30.648Z,20.90
2023-04-12T18:26:59.433Z,20.80
2023-04-12T18:29:26.461Z,20.70
2023-04-12T18:31:53.506Z,20.70
2023-04-12T18:34:20.492Z,20.70
2023-04-12T18:36:47.692Z,20.70
2023-04-12T18:39:14.617Z,20.70
2023-04-12T18:41:41.399Z,20.70
2023-04-12T18:44:16.550Z,20.80
2023-04-12T18:46:43.428Z,20.80
2023-04-12T18:49:11.693Z,20.80
2023-04-12T18:51:38.529Z,20.80
2023-04-12T18:54:05.533Z,20.80
2023-04-12T18:56:33.045Z,20.80
2023-04-12T18:59:01.368Z,20.70
2023-04-12T19:01:28.094Z,20.70
2023-04-12T19:03:55.143Z,20.70
2023-04-12T19:06:22.093Z,20.70
2023-04-12T19:08:49.861Z,20.70
2023-04-12T19:11:16.808Z,20.70
2023-04-12T19:13:43.987Z,20.70
2023-04-12T19:16:11.463Z,20.70
2023-04-12T19:18:38.158Z,20.60
2023-04-12T19:21:06.594Z,20.60
2023-04-12T19:23:34.668Z,20.70
2023-04-12T19:26:01.417Z,20.70
2023-04-12T19:28:28.627Z,20.70
2023-04-12T19:30:57.638Z,20.70
2023-04-12T19:33:25.214Z,20.70
2023-04-12T19:35:52.310Z,20.70
2023-04-12T19:38:21.176Z,20.70
2023-04-12T19:40:48.073Z,20.70
2023-04-12T19:43:14.984Z,20.70
2023-04-12T19:45:42.316Z,20.80
2023-04-12T19:48:13.966Z,20.70
2023-04-12T19:50:44.693Z,20.70
2023-04-12T19:53:14.034Z,20.70
2023-04-12T19:55:42.494Z,20.70
2023-04-12T19:58:09.365Z,20.80
2023-04-12T20:00:39.289Z,20.80
2023-04-12T20:03:06.096Z,20.80
2023-04-12T20:05:34.536Z,20.70
2023-04-12T20:08:01.290Z,20.60
2023-04-12T20:10:28.003Z,20.60
2023-04-12T20:12:54.775Z,20.50
2023-04-12T20:15:21.530Z,20.60
2023-04-12T20:17:49.006Z,20.60
2023-04-12T20:20:15.930Z,20.60
2023-04-12T20:22:43.281Z,20.60
2023-04-12T20:25:10.890Z,20.60
2023-04-12T20:27:38.626Z,20.60
2023-04-12T20:30:06.422Z,20.60
2023-04-12T20:32:34.817Z,20.60
2023-04-12T20:35:06.644Z,20.50
2023-04-12T20:37:34.640Z,20.60
2023-04-12T20:40:01.343Z,20.50
2023-04-12T20:42:28.060Z,20.50
2023-04-12T20:44:54.761Z,20.50
2023-04-12T20:47:22.363Z,20.50
2023-04-12T20:49:49.212Z,20.50
2023-04-12T20:52:18.634Z,20.50
2023-04-12T20:54:48.411Z,20.50
2023-04-12T20:57:19.491Z,20.50
2023-04-12T20:59:46.444Z,20.50
2023-04-12T21:02:13.240Z,20.40
2023-04-12T21:04:41.803Z,20.40
2023-04-12T21:07:09.256Z,20.40
2023-04-12T21:09:37.638Z,20.40
2023-04-12T21:12:08.234Z,20.40
2023-04-12T21:14:36.677Z,20.40
2023-04-12T21:17:07.766Z,20.40
2023-04-12T21:19:38.936Z,20.40
2023-04-12T21:22:07.365Z,20.40
2023-04-12T21:24:38.170Z,20.40
2023-04-12T21:27:09.503Z,20.40
2023-04-12T21:29:41.152Z,20.40
2023-04-12T21:32:08.694Z,20.40
2023-04-12T21:34:35.730Z,20.40
2023-04-12T21:37:02.851Z,20.30
2023-04-12T21:39:29.949Z,20.30
2023-04-12T21:41:58.090Z,20.30
2023-04-12T21:44:25.484Z,20.30
2023-04-12T21:46:52.487Z,20.30
2023-04-12T21:49:19.228Z,20.30
2023-04-12T21:51:49.411Z,20.30
2023-04-12T21:54:16.547Z,20.30
2023-04-12T21:56:43.341Z,20.30
2023-04-12T21:59:10.120Z,20.30
2023-04-12T22:01:38.081Z,20.20
2023-04-12T22:04:04.966Z,20.20
2023-04-12T22:06:31.701Z,20.20
2023-04-12T22:09:02.031Z,20.20
2023-04-12T22:11:29.922Z,20.20
2023-04-12T22:13:57.024Z,20.20
2023-04-12T22:16:24.700Z,20.10
2023-04-12T22:18:52.808Z,20.20
2023-04-12T22:21:19.682Z,20.10
2023-04-12T22:23:46.729Z,20.10
2023-04-12T22:26:13.559Z,20.10
2023-04-12T22:28:42.580Z,20.20
2023-04-12T22:31:14.266Z,20.20
2023-04-12T22:33:42.134Z,20.20
2023-04-12T22:36:10.844Z,20.20
2023-04-12T22:38:37.725Z,20.20
2023-04-12T22:41:04.618Z,20.20
2023-04-12T22:43:42.057Z,20.20
2023-04-12T22:46:15.668Z,20.20
2023-04-12T22:48:48.229Z,20.20
2023-04-12T22:51:15.367Z,20.10
2023-04-12T22:53:43.532Z,20.20
2023-04-12T22:56:12.612Z,20.10
2023-04-12T22:58:40.760Z,20.10
2023-04-12T23:01:07.960Z,20.10
2023-04-12T23:03:34.795Z,20.10
2023-04-12T23:06:02.033Z,20.10
2023-04-12T23:08:29.269Z,20.10
2023-04-12T23:11:02.872Z,20.00
2023-04-12T23:13:29.953Z,20.00
2023-04-12T23:15:57.740Z,20.00
2023-04-12T23:18:25.655Z,20.00
2023-04-12T23:20:53.896Z,20.00
2023-04-12T23:23:21.365Z,20.00
2023-04-12T23:25:48.076Z,20.00
2023-04-12T23:28:19.336Z,20.00
2023-04-12T23:30:50.033Z,20.00
2023-04-12T23:33:20.532Z,20.00
2023-04-12T23:35:52.447Z,20.00
2023-04-12T23:38:32.282Z,20.00
2023-04-12T23:41:00.405Z,20.10
2023-04-12T23:43:27.171Z,20.10
2023-04-12T23:45:54.063Z,20.10
2023-04-12T23:48:21.744Z,20.10
2023-04-12T23:50:48.533Z,20.10
2023-04-12T23:53:16.127Z,20.10
2023-04-12T23:55:43.200Z,20.10
2023-04-12T23:58:11.903Z,20.10
